createdAt,value
2018-12-31T00:01:13.958Z,14.67
2018-12-31T00:03:42.520Z,9.53
2018-12-31T00:06:11.396Z,21.80
2018-12-31T00:08:40.026Z,10.50
2018-12-31T00:11:08.640Z,23.67
2018-12-31T00:13:37.520Z,21.20
2018-12-31T00:16:06.078Z,11.80
2018-12-31T00:18:34.712Z,12.53
2018-12-31T00:21:03.286Z,17.63
2018-12-31T00:23:31.922Z,12.80
2018-12-31T00:26:00.481Z,10.50
2018-12-31T00:28:29.583Z,16.50
2018-12-31T00:30:58.136Z,12.57
2018-12-31T00:33:26.828Z,13.37
2018-12-31T00:35:55.451Z,2.97
2018-12-31T00:38:24.094Z,8.50
2018-12-31T00:40:55.600Z,20.27
2018-12-31T00:43:24.568Z,10.70
2018-12-31T00:45:53.130Z,21.53
2018-12-31T00:48:21.708Z,13.10
2018-12-31T00:50:50.468Z,20.07
2018-12-31T00:53:19.711Z,7.90
2018-12-31T00:55:48.425Z,17.37
2018-12-31T00:58:16.947Z,28.20
2018-12-31T01:00:45.643Z,14.63
2018-12-31T01:03:14.208Z,13.30
2018-12-31T01:05:42.872Z,11.20
2018-12-31T01:08:11.442Z,25.27
2018-12-31T01:10:40.162Z,10.63
2018-12-31T01:13:08.810Z,12.40
2018-12-31T01:15:37.380Z,13.50
2018-12-31T01:18:06.348Z,17.20
2018-12-31T01:20:34.912Z,10.60
2018-12-31T01:23:03.573Z,15.47
2018-12-31T01:25:32.133Z,14.30
2018-12-31T01:28:01.098Z,29.43
2018-12-31T01:30:29.725Z,16.73
2018-12-31T01:32:58.875Z,11.00
2018-12-31T01:35:27.429Z,13.23
2018-12-31T01:37:56.451Z,20.77
2018-12-31T01:40:25.012Z,10.50
2018-12-31T01:42:53.669Z,25.07
2018-12-31T01:45:22.331Z,13.20
2018-12-31T01:47:50.897Z,6.53
2018-12-31T01:50:19.643Z,12.03
2018-12-31T01:52:48.195Z,18.13
2018-12-31T01:55:17.169Z,9.47
2018-12-31T01:57:45.729Z,18.47
2018-12-31T02:00:14.295Z,7.63
2018-12-31T02:02:43.107Z,13.47
2018-12-31T02:05:11.677Z,9.93
2018-12-31T02:07:40.679Z,15.00
2018-12-31T02:10:09.314Z,10.03
2018-12-31T02:12:37.975Z,7.73
2018-12-31T02:15:07.302Z,12.40
2018-12-31T02:17:35.951Z,19.83
2018-12-31T02:20:05.556Z,19.27
2018-12-31T02:22:34.218Z,13.23
2018-12-31T02:25:05.513Z,15.53
2018-12-31T02:27:34.099Z,9.00
2018-12-31T02:30:03.160Z,14.03
2018-12-31T02:32:31.794Z,11.33
2018-12-31T02:35:00.360Z,10.63
2018-12-31T02:37:29.013Z,15.00
2018-12-31T02:39:57.574Z,14.73
2018-12-31T02:42:26.222Z,12.50
2018-12-31T02:44:54.881Z,16.53
2018-12-31T02:47:23.435Z,7.60
2018-12-31T02:49:52.259Z,8.57
2018-12-31T02:52:20.869Z,17.40
2018-12-31T02:54:50.025Z,13.40
2018-12-31T02:57:18.607Z,18.47
2018-12-31T02:59:47.227Z,7.40
2018-12-31T03:02:15.887Z,14.77
2018-12-31T03:04:44.449Z,12.50
2018-12-31T03:07:13.106Z,11.30
2018-12-31T03:09:41.807Z,6.70
2018-12-31T03:12:10.811Z,18.57
2018-12-31T03:14:40.018Z,10.13
2018-12-31T03:17:11.218Z,16.50
2018-12-31T03:19:40.138Z,25.53
2018-12-31T03:22:08.698Z,19.47
2018-12-31T03:24:37.584Z,13.77
2018-12-31T03:27:06.157Z,15.77
2018-12-31T03:29:34.921Z,21.93
2018-12-31T03:32:03.483Z,23.40
2018-12-31T03:34:32.129Z,14.57
2018-12-31T03:37:00.680Z,10.50
2018-12-31T03:39:29.424Z,17.00
2018-12-31T03:41:57.977Z,13.00
2018-12-31T03:44:27.205Z,20.03
2018-12-31T03:46:56.013Z,14.57
2018-12-31T03:49:24.827Z,8.83
2018-12-31T03:51:53.389Z,20.53
2018-12-31T03:54:22.368Z,9.60
2018-12-31T03:56:51.000Z,19.93
2018-12-31T03:59:20.040Z,10.63
2018-12-31T04:01:48.610Z,23.00
2018-12-31T04:04:17.291Z,15.13
2018-12-31T04:06:45.856Z,17.07
2018-12-31T04:09:18.060Z,16.40
2018-12-31T04:11:46.629Z,24.87
2018-12-31T04:14:15.643Z,11.13
2018-12-31T04:16:44.732Z,22.47
2018-12-31T04:19:13.288Z,17.90
2018-12-31T04:21:41.936Z,15.73
2018-12-31T04:24:10.498Z,23.53
2018-12-31T04:26:39.156Z,20.10
2018-12-31T04:29:07.730Z,22.70
2018-12-31T04:31:36.842Z,19.57
2018-12-31T04:34:05.408Z,18.23
2018-12-31T04:36:33.976Z,16.83
2018-12-31T04:39:02.622Z,19.43
2018-12-31T04:41:31.175Z,12.00
2018-12-31T04:43:59.925Z,19.50
2018-12-31T04:46:28.420Z,20.43
2018-12-31T04:48:57.440Z,18.37
2018-12-31T04:51:26.006Z,23.97
2018-12-31T04:53:54.708Z,25.33
2018-12-31T04:56:23.478Z,27.67
2018-12-31T04:58:52.039Z,19.57
2018-12-31T05:01:20.693Z,26.97
2018-12-31T05:03:49.248Z,21.53
2018-12-31T05:06:18.438Z,25.73
2018-12-31T05:08:47.000Z,21.00
2018-12-31T05:11:15.622Z,29.53
2018-12-31T05:13:44.188Z,17.40
2018-12-31T05:16:13.302Z,18.43
2018-12-31T05:18:41.868Z,21.77
2018-12-31T05:21:10.502Z,21.87
2018-12-31T05:23:39.079Z,25.70
2018-12-31T05:26:07.951Z,20.20
2018-12-31T05:28:36.588Z,16.13
2018-12-31T05:31:05.182Z,19.07
2018-12-31T05:33:33.841Z,23.80
2018-12-31T05:36:02.400Z,22.30
2018-12-31T05:38:31.356Z,26.67
2018-12-31T05:40:59.925Z,34.73
2018-12-31T05:43:28.569Z,18.97
2018-12-31T05:45:57.125Z,22.47
2018-12-31T05:48:25.900Z,21.37
2018-12-31T05:50:54.542Z,25.60
2018-12-31T05:53:25.823Z,22.97
2018-12-31T05:55:55.229Z,31.33
2018-12-31T05:58:23.803Z,28.83
2018-12-31T06:00:52.438Z,23.53
2018-12-31T06:03:21.001Z,32.00
2018-12-31T06:05:49.693Z,29.00
2018-12-31T06:08:18.275Z,31.87
2018-12-31T06:10:46.943Z,28.00
2018-12-31T06:13:15.519Z,30.57
2018-12-31T06:15:44.089Z,28.90
2018-12-31T06:18:13.003Z,22.47
2018-12-31T06:20:41.574Z,22.07
2018-12-31T06:23:10.239Z,26.30
2018-12-31T06:25:38.806Z,24.27
2018-12-31T06:28:07.744Z,21.70
2018-12-31T06:30:36.297Z,24.37
2018-12-31T06:33:05.320Z,21.23
2018-12-31T06:35:33.891Z,26.60
2018-12-31T06:38:02.793Z,21.57
2018-12-31T06:40:31.356Z,26.33
2018-12-31T06:43:00.169Z,24.97
2018-12-31T06:45:34.660Z,22.57
2018-12-31T06:48:03.702Z,28.47
2018-12-31T06:50:32.277Z,18.20
2018-12-31T06:53:01.249Z,30.20
2018-12-31T06:55:30.180Z,26.00
2018-12-31T06:58:01.691Z,25.40
2018-12-31T07:00:30.324Z,19.73
2018-12-31T07:02:58.995Z,23.60
2018-12-31T07:05:27.547Z,36.00
2018-12-31T07:07:56.435Z,27.60
2018-12-31T07:10:25.032Z,25.33
2018-12-31T07:12:53.687Z,38.53
2018-12-31T07:15:22.246Z,21.60
2018-12-31T07:17:51.085Z,31.57
2018-12-31T07:20:19.660Z,19.17
2018-12-31T07:22:48.283Z,32.03
2018-12-31T07:25:16.867Z,36.57
2018-12-31T07:27:45.927Z,42.53
2018-12-31T07:30:14.489Z,30.53
2018-12-31T07:32:43.511Z,22.50
2018-12-31T07:35:12.153Z,22.50
2018-12-31T07:37:41.086Z,23.90
2018-12-31T07:40:09.721Z,28.97
2018-12-31T07:42:38.413Z,42.83
2018-12-31T07:45:06.979Z,23.63
2018-12-31T07:47:36.233Z,26.20
2018-12-31T07:50:05.561Z,26.23
2018-12-31T07:52:34.428Z,26.83
2018-12-31T07:55:02.982Z,32.40
2018-12-31T07:57:32.223Z,24.30
2018-12-31T08:00:00.862Z,22.13
2018-12-31T08:02:29.774Z,29.40
2018-12-31T08:04:58.333Z,26.73
2018-12-31T08:07:27.566Z,27.63
2018-12-31T08:09:56.118Z,24.00
2018-12-31T08:12:25.169Z,26.80
2018-12-31T08:14:53.731Z,22.10
2018-12-31T08:17:22.719Z,29.90
2018-12-31T08:19:51.277Z,23.93
2018-12-31T08:22:19.937Z,29.83
2018-12-31T08:24:48.499Z,37.67
2018-12-31T08:27:17.330Z,32.50
2018-12-31T08:29:45.896Z,28.47
2018-12-31T08:32:14.449Z,32.37
2018-12-31T08:34:43.107Z,30.27
2018-12-31T08:37:11.751Z,41.70
2018-12-31T08:39:40.886Z,33.57
2018-12-31T08:42:09.481Z,30.07
2018-12-31T08:44:38.121Z,37.60
2018-12-31T08:47:06.671Z,29.83
2018-12-31T08:49:35.372Z,30.23
2018-12-31T08:52:04.009Z,31.40
2018-12-31T08:54:33.005Z,26.67
2018-12-31T08:57:01.919Z,37.33
2018-12-31T08:59:30.979Z,34.33
2018-12-31T09:02:01.508Z,31.13
2018-12-31T09:04:29.871Z,25.53
2018-12-31T09:06:58.530Z,30.83
2018-12-31T09:09:27.103Z,33.10
2018-12-31T09:11:55.954Z,30.43
2018-12-31T09:14:24.522Z,29.63
2018-12-31T09:16:53.083Z,33.80
2018-12-31T09:19:21.749Z,29.93
2018-12-31T09:21:50.313Z,29.63
2018-12-31T09:24:18.977Z,27.47
2018-12-31T09:26:47.539Z,34.20
2018-12-31T09:29:16.249Z,29.47
2018-12-31T09:31:44.817Z,26.87
2018-12-31T09:34:13.485Z,28.23
2018-12-31T09:36:42.052Z,32.57
2018-12-31T09:39:10.716Z,33.87
2018-12-31T09:41:39.287Z,28.10
2018-12-31T09:44:07.846Z,32.23
2018-12-31T09:46:38.073Z,40.33
2018-12-31T09:49:06.631Z,30.53
2018-12-31T09:51:35.379Z,33.60
2018-12-31T09:54:04.029Z,32.47
2018-12-31T09:56:33.051Z,31.67
2018-12-31T09:59:01.679Z,29.00
2018-12-31T10:01:30.241Z,34.40
2018-12-31T10:03:59.129Z,31.10
2018-12-31T10:06:27.711Z,32.43
2018-12-31T10:08:56.377Z,26.77
2018-12-31T10:11:24.947Z,39.90
2018-12-31T10:13:53.614Z,31.13
2018-12-31T10:16:22.267Z,28.40
2018-12-31T10:18:51.197Z,31.30
2018-12-31T10:21:20.019Z,37.73
2018-12-31T10:23:48.981Z,42.63
2018-12-31T10:26:17.569Z,35.37
2018-12-31T10:28:46.339Z,27.77
2018-12-31T10:31:14.907Z,34.33
2018-12-31T10:33:43.758Z,26.87
2018-12-31T10:36:12.335Z,26.40
2018-12-31T10:38:40.899Z,23.23
2018-12-31T10:41:09.763Z,29.57
2018-12-31T10:43:38.337Z,29.53
2018-12-31T10:46:07.153Z,28.37
2018-12-31T10:48:35.916Z,30.47
2018-12-31T10:51:05.115Z,24.40
2018-12-31T10:53:37.605Z,29.73
2018-12-31T10:56:06.795Z,25.60
2018-12-31T10:58:35.365Z,26.33
2018-12-31T11:01:04.111Z,21.20
2018-12-31T11:03:32.658Z,27.03
2018-12-31T11:06:01.353Z,28.00
2018-12-31T11:08:29.920Z,24.37
2018-12-31T11:10:58.751Z,25.80
2018-12-31T11:13:27.320Z,34.20
2018-12-31T11:15:55.885Z,24.10
2018-12-31T11:18:27.344Z,24.13
2018-12-31T11:20:55.917Z,24.00
2018-12-31T11:23:24.822Z,29.63
2018-12-31T11:25:53.389Z,23.10
2018-12-31T11:28:22.177Z,26.80
2018-12-31T11:30:51.708Z,33.87
2018-12-31T11:33:20.576Z,23.87
2018-12-31T11:35:49.133Z,20.13
2018-12-31T11:38:18.159Z,26.53
2018-12-31T11:40:46.799Z,22.60
2018-12-31T11:43:15.423Z,31.17
2018-12-31T11:45:44.072Z,31.03
2018-12-31T11:48:12.703Z,26.07
2018-12-31T11:50:41.506Z,19.70
2018-12-31T11:53:10.061Z,31.70
2018-12-31T11:55:38.958Z,36.33
2018-12-31T11:58:07.869Z,67.27
2018-12-31T12:00:36.512Z,53.83
2018-12-31T12:03:05.083Z,24.40
2018-12-31T12:05:33.649Z,34.50
2018-12-31T12:08:02.307Z,31.37
2018-12-31T12:10:31.279Z,24.17
2018-12-31T12:12:59.877Z,19.27
2018-12-31T12:15:28.663Z,21.97
2018-12-31T12:17:57.681Z,22.37
2018-12-31T12:20:26.421Z,22.07
2018-12-31T12:22:55.002Z,24.57
2018-12-31T12:25:23.798Z,24.90
2018-12-31T12:27:52.367Z,23.17
2018-12-31T12:30:21.035Z,18.50
2018-12-31T12:32:49.633Z,19.23
2018-12-31T12:35:18.204Z,26.73
2018-12-31T12:37:48.532Z,26.67
2018-12-31T12:40:17.400Z,27.07
2018-12-31T12:42:46.233Z,33.70
2018-12-31T12:45:14.802Z,37.97
2018-12-31T12:47:43.458Z,30.30
2018-12-31T12:50:12.024Z,26.20
2018-12-31T12:52:40.665Z,30.90
2018-12-31T12:55:09.248Z,32.10
2018-12-31T12:57:38.750Z,38.80
2018-12-31T13:00:07.556Z,38.83
2018-12-31T13:02:36.539Z,49.07
2018-12-31T13:05:05.351Z,32.70
2018-12-31T13:07:34.163Z,42.77
2018-12-31T13:10:02.726Z,39.07
2018-12-31T13:12:31.692Z,30.50
2018-12-31T13:15:00.254Z,38.33
2018-12-31T13:17:29.268Z,35.33
2018-12-31T13:19:57.890Z,36.33
2018-12-31T13:22:26.535Z,32.73
2018-12-31T13:24:55.192Z,38.03
2018-12-31T13:27:23.809Z,30.33
2018-12-31T13:29:52.793Z,36.40
2018-12-31T13:32:21.361Z,36.63
2018-12-31T13:34:49.920Z,39.33
2018-12-31T13:37:18.858Z,49.83
2018-12-31T13:39:47.442Z,34.57
2018-12-31T13:42:16.246Z,43.80
2018-12-31T13:44:44.817Z,31.50
2018-12-31T13:47:13.794Z,33.70
2018-12-31T13:49:42.368Z,42.00
2018-12-31T13:52:11.173Z,32.27
2018-12-31T13:54:42.626Z,37.40
2018-12-31T13:57:11.198Z,38.90
2018-12-31T13:59:40.291Z,27.27
2018-12-31T14:02:08.881Z,29.93
2018-12-31T14:04:40.784Z,31.50
2018-12-31T14:07:09.339Z,26.67
2018-12-31T14:09:38.548Z,32.20
2018-12-31T14:12:07.116Z,27.60
2018-12-31T14:14:35.918Z,33.00
2018-12-31T14:17:04.877Z,27.70
2018-12-31T14:19:33.452Z,23.97
2018-12-31T14:22:02.900Z,35.40
2018-12-31T14:24:31.481Z,29.97
2018-12-31T14:27:00.771Z,26.23
2018-12-31T14:29:29.533Z,25.07
2018-12-31T14:31:58.179Z,28.97
2018-12-31T14:34:27.144Z,26.00
2018-12-31T14:36:56.131Z,27.03
2018-12-31T14:39:24.699Z,30.03
2018-12-31T14:41:53.346Z,23.73
2018-12-31T14:44:21.916Z,27.67
2018-12-31T14:46:51.270Z,38.03
2018-12-31T14:49:19.851Z,23.10
2018-12-31T14:51:49.050Z,25.03
2018-12-31T14:54:17.621Z,23.83
2018-12-31T14:56:46.673Z,25.20
2018-12-31T14:59:15.264Z,27.03
2018-12-31T15:01:44.217Z,26.03
2018-12-31T15:04:12.790Z,29.13
2018-12-31T15:06:41.588Z,21.10
2018-12-31T15:09:10.155Z,23.90
2018-12-31T15:11:39.214Z,32.00
2018-12-31T15:14:07.869Z,30.50
2018-12-31T15:16:36.944Z,34.13
2018-12-31T15:19:05.638Z,24.87
2018-12-31T15:21:34.278Z,27.30
2018-12-31T15:24:02.841Z,37.27
2018-12-31T15:26:31.887Z,24.40
2018-12-31T15:29:00.446Z,26.33
2018-12-31T15:31:29.436Z,36.37
2018-12-31T15:33:57.994Z,31.37
2018-12-31T15:36:26.727Z,31.10
2018-12-31T15:38:55.519Z,42.00
2018-12-31T15:41:24.087Z,38.87
2018-12-31T15:43:52.895Z,28.33
2018-12-31T15:46:21.455Z,33.73
2018-12-31T15:48:51.697Z,27.27
2018-12-31T15:51:23.178Z,31.53
2018-12-31T15:53:51.840Z,35.97
2018-12-31T15:56:20.446Z,26.60
2018-12-31T15:58:50.947Z,30.20
2018-12-31T16:01:19.511Z,26.80
2018-12-31T16:03:51.241Z,31.10
2018-12-31T16:06:20.081Z,31.37
2018-12-31T16:08:48.653Z,29.90
2018-12-31T16:11:17.321Z,32.57
2018-12-31T16:13:46.023Z,32.77
2018-12-31T16:16:15.238Z,35.70
2018-12-31T16:18:43.817Z,34.20
2018-12-31T16:21:12.610Z,32.67
2018-12-31T16:23:41.161Z,37.60
2018-12-31T16:26:10.041Z,34.70
2018-12-31T16:28:38.557Z,43.33
2018-12-31T16:31:07.116Z,42.10
2018-12-31T16:33:36.028Z,43.50
2018-12-31T16:36:04.600Z,38.40
2018-12-31T16:38:33.406Z,39.37
2018-12-31T16:41:02.054Z,42.73
2018-12-31T16:43:30.780Z,42.83
2018-12-31T16:45:59.348Z,40.73
2018-12-31T16:48:28.252Z,48.23
2018-12-31T16:50:56.834Z,45.73
2018-12-31T16:53:25.773Z,39.83
2018-12-31T16:55:54.345Z,47.00
2018-12-31T16:58:22.978Z,46.77
2018-12-31T17:00:51.569Z,46.67
2018-12-31T17:03:20.567Z,43.10
2018-12-31T17:05:49.526Z,39.90
2018-12-31T17:08:18.344Z,50.17
2018-12-31T17:10:46.913Z,33.30
2018-12-31T17:13:15.728Z,39.60
2018-12-31T17:15:44.285Z,35.97
2018-12-31T17:18:13.710Z,33.07
2018-12-31T17:20:42.285Z,38.87
2018-12-31T17:23:11.083Z,37.97
2018-12-31T17:25:39.664Z,42.23
2018-12-31T17:28:08.300Z,33.97
2018-12-31T17:30:36.871Z,35.73
2018-12-31T17:33:05.847Z,33.80
2018-12-31T17:35:34.392Z,37.80
2018-12-31T17:38:03.057Z,30.70
2018-12-31T17:40:31.621Z,34.83
2018-12-31T17:43:00.835Z,37.40
2018-12-31T17:45:29.813Z,35.80
2018-12-31T17:47:58.366Z,30.97
2018-12-31T17:50:27.446Z,38.80
2018-12-31T17:52:56.086Z,32.40
2018-12-31T17:55:24.651Z,34.03
2018-12-31T17:58:06.114Z,32.73
2018-12-31T18:00:34.885Z,35.23
2018-12-31T18:03:03.456Z,30.73
2018-12-31T18:05:32.664Z,33.77
2018-12-31T18:08:01.600Z,29.47
2018-12-31T18:10:30.175Z,29.17
2018-12-31T18:12:59.138Z,37.20
2018-12-31T18:15:27.778Z,38.23
2018-12-31T18:17:57.115Z,28.57
2018-12-31T18:20:25.689Z,30.50
2018-12-31T18:22:54.369Z,48.53
2018-12-31T18:25:23.373Z,41.00
2018-12-31T18:27:51.941Z,42.77
2018-12-31T18:30:20.759Z,37.00
2018-12-31T18:32:49.462Z,44.83
2018-12-31T18:35:18.105Z,35.90
2018-12-31T18:37:58.760Z,37.83
2018-12-31T18:40:38.197Z,32.87
2018-12-31T18:43:23.264Z,45.60
2018-12-31T18:46:02.399Z,35.67
2018-12-31T18:48:31.333Z,29.20
2018-12-31T18:51:10.171Z,32.53
2018-12-31T18:53:44.718Z,23.50
2018-12-31T18:56:20.603Z,23.70
2018-12-31T18:58:57.396Z,25.00
2018-12-31T19:01:25.959Z,25.07
2018-12-31T19:03:54.751Z,32.90
2018-12-31T19:06:23.399Z,28.37
2018-12-31T19:08:52.072Z,31.23
2018-12-31T19:11:20.647Z,29.77
2018-12-31T19:13:49.516Z,28.83
2018-12-31T19:16:18.534Z,36.23
2018-12-31T19:18:47.095Z,28.53
2018-12-31T19:21:15.977Z,31.63
2018-12-31T19:23:44.556Z,34.43
2018-12-31T19:26:13.358Z,37.27
2018-12-31T19:28:41.917Z,32.60
2018-12-31T19:31:10.941Z,36.33
2018-12-31T19:33:39.510Z,24.87
2018-12-31T19:36:08.312Z,25.80
2018-12-31T19:38:37.071Z,29.07
2018-12-31T19:41:06.093Z,19.70
2018-12-31T19:43:34.657Z,20.57
2018-12-31T19:46:03.448Z,27.53
2018-12-31T19:48:32.014Z,25.67
2018-12-31T19:51:00.973Z,27.63
2018-12-31T19:53:29.515Z,28.53
2018-12-31T19:55:58.622Z,29.13
2018-12-31T19:58:27.528Z,17.40
2018-12-31T20:00:56.365Z,34.70
2018-12-31T20:03:24.951Z,20.27
2018-12-31T20:05:53.751Z,27.10
2018-12-31T20:08:22.332Z,24.50
2018-12-31T20:10:51.081Z,27.07
2018-12-31T20:13:19.645Z,27.43
2018-12-31T20:15:48.916Z,32.53
2018-12-31T20:18:17.494Z,29.53
2018-12-31T20:20:46.370Z,29.87
2018-12-31T20:23:15.055Z,27.17
2018-12-31T20:25:43.864Z,29.30
2018-12-31T20:28:12.443Z,28.23
2018-12-31T20:30:41.932Z,34.43
2018-12-31T20:33:10.582Z,30.53
2018-12-31T20:35:39.570Z,26.77
2018-12-31T20:38:08.147Z,33.90
2018-12-31T20:40:36.735Z,34.10
2018-12-31T20:43:05.379Z,34.17
2018-12-31T20:45:33.945Z,32.27
2018-12-31T20:48:02.855Z,33.37
2018-12-31T20:50:31.424Z,33.40
2018-12-31T20:53:00.058Z,31.83
2018-12-31T20:55:28.631Z,32.00
2018-12-31T20:57:57.787Z,30.80
2018-12-31T21:00:26.455Z,31.23
2018-12-31T21:02:55.534Z,32.43
2018-12-31T21:05:24.095Z,36.10
2018-12-31T21:07:53.157Z,39.00
2018-12-31T21:10:21.773Z,38.30
2018-12-31T21:12:50.523Z,42.37
2018-12-31T21:15:19.092Z,44.20
2018-12-31T21:17:47.739Z,44.07
2018-12-31T21:20:16.326Z,39.37
2018-12-31T21:22:44.992Z,46.20
2018-12-31T21:25:13.861Z,42.17
2018-12-31T21:27:42.643Z,55.77
2018-12-31T21:30:11.585Z,55.73
2018-12-31T21:32:40.237Z,39.80
2018-12-31T21:35:08.935Z,45.03
2018-12-31T21:37:37.641Z,34.80
2018-12-31T21:40:08.541Z,42.27
2018-12-31T21:42:37.183Z,33.50
2018-12-31T21:45:06.103Z,41.77
2018-12-31T21:47:35.000Z,39.80
2018-12-31T21:50:04.033Z,38.90
2018-12-31T21:52:32.673Z,39.80
2018-12-31T21:55:01.248Z,32.53
2018-12-31T21:57:30.045Z,27.73
2018-12-31T21:59:59.213Z,22.90
2018-12-31T22:02:27.947Z,24.90
2018-12-31T22:04:56.821Z,27.30
2018-12-31T22:07:25.828Z,27.50
2018-12-31T22:09:54.473Z,35.87
2018-12-31T22:12:23.179Z,40.10
2018-12-31T22:14:51.776Z,38.87
2018-12-31T22:17:20.832Z,27.27
2018-12-31T22:19:49.480Z,30.00
2018-12-31T22:22:18.046Z,26.97
2018-12-31T22:24:46.826Z,25.90
2018-12-31T22:27:15.385Z,27.80
2018-12-31T22:29:44.199Z,37.37
2018-12-31T22:32:12.756Z,32.90
2018-12-31T22:34:41.873Z,28.40
2018-12-31T22:37:10.527Z,21.10
2018-12-31T22:39:39.172Z,16.70
2018-12-31T22:42:07.885Z,35.20
2018-12-31T22:44:36.821Z,32.10
2018-12-31T22:47:05.402Z,27.50
2018-12-31T22:49:34.265Z,30.67
2018-12-31T22:52:02.756Z,34.93
2018-12-31T22:54:31.558Z,30.17
2018-12-31T22:57:00.653Z,37.10
2018-12-31T22:59:29.578Z,34.07
2018-12-31T23:01:58.291Z,42.37
2018-12-31T23:04:26.855Z,34.10
2018-12-31T23:06:57.022Z,68.57
2018-12-31T23:09:26.335Z,56.13
2018-12-31T23:11:54.903Z,80.90
2018-12-31T23:14:24.273Z,77.50
2018-12-31T23:16:54.689Z,78.33
2018-12-31T23:19:23.555Z,68.53
2018-12-31T23:21:52.558Z,76.50
2018-12-31T23:24:21.322Z,74.53
2018-12-31T23:26:49.984Z,62.13
2018-12-31T23:29:19.106Z,78.93
2018-12-31T23:31:47.696Z,66.70
2018-12-31T23:34:16.329Z,41.37
2018-12-31T23:36:44.900Z,43.70
2018-12-31T23:39:13.540Z,45.80
2018-12-31T23:41:42.106Z,39.40
2018-12-31T23:44:10.813Z,42.27
2018-12-31T23:46:39.386Z,29.60
2018-12-31T23:49:08.183Z,37.10
2018-12-31T23:51:36.746Z,32.80
2018-12-31T23:54:05.562Z,38.60
2018-12-31T23:56:34.136Z,39.23
2018-12-31T23:59:03.752Z,37.33
